sensor_id;sensor_type;location;lat;lon;timestamp;P1;durP1;ratioP1;P2;durP2;ratioP2
37409;SDS011;23275;48.914;12.566;2023-04-03T00:01:07;6.60;;;1.92;;
37409;SDS011;23275;48.914;12.566;2023-04-03T00:03:33;4.90;;;2.20;;
37409;SDS011;23275;48.914;12.566;2023-04-03T00:05:59;3.72;;;2.00;;
37409;SDS011;23275;48.914;12.566;2023-04-03T00:08:25;3.25;;;1.52;;
37409;SDS011;23275;48.914;12.566;2023-04-03T00:10:51;4.00;;;1.98;;
37409;SDS011;23275;48.914;12.566;2023-04-03T00:13:17;6.57;;;2.28;;
37409;SDS011;23275;48.914;12.566;2023-04-03T00:15:43;5.90;;;2.30;;
37409;SDS011;23275;48.914;12.566;2023-04-03T00:18:09;6.15;;;2.15;;
37409;SDS011;23275;48.914;12.566;2023-04-03T00:20:34;6.32;;;1.73;;
37409;SDS011;23275;48.914;12.566;2023-04-03T00:23:00;3.80;;;1.83;;
37409;SDS011;23275;48.914;12.566;2023-04-03T00:25:26;3.60;;;1.90;;
37409;SDS011;23275;48.914;12.566;2023-04-03T00:27:52;3.72;;;2.00;;
37409;SDS011;23275;48.914;12.566;2023-04-03T00:30:18;4.10;;;1.83;;
37409;SDS011;23275;48.914;12.566;2023-04-03T00:32:47;3.28;;;1.70;;
37409;SDS011;23275;48.914;12.566;2023-04-03T00:35:13;4.40;;;2.33;;
37409;SDS011;23275;48.914;12.566;2023-04-03T00:37:40;6.07;;;2.22;;
37409;SDS011;23275;48.914;12.566;2023-04-03T00:40:07;5.15;;;2.28;;
37409;SDS011;23275;48.914;12.566;2023-04-03T00:42:33;4.10;;;2.13;;
37409;SDS011;23275;48.914;12.566;2023-04-03T00:47:25;5.03;;;2.33;;
37409;SDS011;23275;48.914;12.566;2023-04-03T00:49:51;3.80;;;2.22;;
37409;SDS011;23275;48.914;12.566;2023-04-03T00:52:19;4.85;;;2.50;;
37409;SDS011;23275;48.914;12.566;2023-04-03T00:54:48;4.30;;;2.42;;
37409;SDS011;23275;48.914;12.566;2023-04-03T00:57:18;5.38;;;2.17;;
37409;SDS011;23275;48.914;12.566;2023-04-03T00:59:48;5.55;;;2.35;;
37409;SDS011;23275;48.914;12.566;2023-04-03T01:02:16;8.55;;;2.63;;
37409;SDS011;23275;48.914;12.566;2023-04-03T01:04:43;4.18;;;2.60;;
37409;SDS011;23275;48.914;12.566;2023-04-03T01:07:16;4.82;;;2.55;;
37409;SDS011;23275;48.914;12.566;2023-04-03T01:09:52;5.60;;;2.80;;
37409;SDS011;23275;48.914;12.566;2023-04-03T01:14:50;5.63;;;2.83;;
37409;SDS011;23275;48.914;12.566;2023-04-03T01:22:48;4.25;;;2.42;;
37409;SDS011;23275;48.914;12.566;2023-04-03T01:25:44;4.80;;;2.38;;
37409;SDS011;23275;48.914;12.566;2023-04-03T01:28:17;5.00;;;2.47;;
37409;SDS011;23275;48.914;12.566;2023-04-03T01:33:56;5.07;;;3.00;;
37409;SDS011;23275;48.914;12.566;2023-04-03T01:36:23;4.82;;;2.60;;
37409;SDS011;23275;48.914;12.566;2023-04-03T01:38:52;6.70;;;3.30;;
37409;SDS011;23275;48.914;12.566;2023-04-03T01:41:18;3.58;;;2.45;;
37409;SDS011;23275;48.914;12.566;2023-04-03T01:43:45;5.72;;;2.58;;
37409;SDS011;23275;48.914;12.566;2023-04-03T01:46:12;5.70;;;2.80;;
37409;SDS011;23275;48.914;12.566;2023-04-03T01:48:37;6.72;;;2.53;;
37409;SDS011;23275;48.914;12.566;2023-04-03T01:51:03;5.70;;;2.63;;
37409;SDS011;23275;48.914;12.566;2023-04-03T01:53:29;4.65;;;2.65;;
37409;SDS011;23275;48.914;12.566;2023-04-03T01:55:54;4.45;;;2.65;;
37409;SDS011;23275;48.914;12.566;2023-04-03T01:58:20;5.00;;;2.75;;
37409;SDS011;23275;48.914;12.566;2023-04-03T02:00:45;4.55;;;2.83;;
37409;SDS011;23275;48.914;12.566;2023-04-03T02:03:11;5.93;;;2.67;;
37409;SDS011;23275;48.914;12.566;2023-04-03T02:05:37;5.00;;;2.78;;
37409;SDS011;23275;48.914;12.566;2023-04-03T02:08:03;5.45;;;2.60;;
37409;SDS011;23275;48.914;12.566;2023-04-03T02:10:29;5.43;;;2.72;;
37409;SDS011;23275;48.914;12.566;2023-04-03T02:12:54;6.65;;;2.92;;
37409;SDS011;23275;48.914;12.566;2023-04-03T02:15:20;6.03;;;2.67;;
37409;SDS011;23275;48.914;12.566;2023-04-03T02:17:46;4.68;;;2.88;;
37409;SDS011;23275;48.914;12.566;2023-04-03T02:20:11;7.68;;;3.25;;
37409;SDS011;23275;48.914;12.566;2023-04-03T02:22:37;4.43;;;2.90;;
37409;SDS011;23275;48.914;12.566;2023-04-03T02:25:02;6.63;;;3.28;;
37409;SDS011;23275;48.914;12.566;2023-04-03T02:27:29;6.00;;;3.13;;
37409;SDS011;23275;48.914;12.566;2023-04-03T02:29:54;5.25;;;2.80;;
37409;SDS011;23275;48.914;12.566;2023-04-03T02:32:20;5.82;;;2.53;;
37409;SDS011;23275;48.914;12.566;2023-04-03T02:34:45;4.55;;;2.65;;
37409;SDS011;23275;48.914;12.566;2023-04-03T02:37:11;5.18;;;2.80;;
37409;SDS011;23275;48.914;12.566;2023-04-03T02:39:37;5.07;;;3.08;;
37409;SDS011;23275;48.914;12.566;2023-04-03T02:42:02;9.38;;;3.47;;
37409;SDS011;23275;48.914;12.566;2023-04-03T02:44:28;5.22;;;3.05;;
37409;SDS011;23275;48.914;12.566;2023-04-03T02:46:54;6.88;;;2.67;;
37409;SDS011;23275;48.914;12.566;2023-04-03T02:49:19;4.15;;;2.67;;
37409;SDS011;23275;48.914;12.566;2023-04-03T02:51:45;6.40;;;3.13;;
37409;SDS011;23275;48.914;12.566;2023-04-03T02:54:11;7.43;;;2.88;;
37409;SDS011;23275;48.914;12.566;2023-04-03T02:56:36;7.70;;;3.35;;
37409;SDS011;23275;48.914;12.566;2023-04-03T02:59:02;6.35;;;2.78;;
37409;SDS011;23275;48.914;12.566;2023-04-03T03:01:28;5.88;;;3.30;;
37409;SDS011;23275;48.914;12.566;2023-04-03T03:03:56;6.40;;;3.30;;
37409;SDS011;23275;48.914;12.566;2023-04-03T03:06:22;5.93;;;2.97;;
37409;SDS011;23275;48.914;12.566;2023-04-03T03:08:48;7.15;;;3.25;;
37409;SDS011;23275;48.914;12.566;2023-04-03T03:11:13;7.63;;;3.13;;
37409;SDS011;23275;48.914;12.566;2023-04-03T03:13:39;7.22;;;3.28;;
37409;SDS011;23275;48.914;12.566;2023-04-03T03:16:05;9.60;;;3.55;;
37409;SDS011;23275;48.914;12.566;2023-04-03T03:18:31;6.18;;;3.20;;
37409;SDS011;23275;48.914;12.566;2023-04-03T03:20:57;8.75;;;3.60;;
37409;SDS011;23275;48.914;12.566;2023-04-03T03:23:25;6.75;;;3.28;;
37409;SDS011;23275;48.914;12.566;2023-04-03T03:25:55;6.88;;;3.15;;
37409;SDS011;23275;48.914;12.566;2023-04-03T03:28:22;6.75;;;3.45;;
37409;SDS011;23275;48.914;12.566;2023-04-03T03:30:47;7.90;;;3.33;;
37409;SDS011;23275;48.914;12.566;2023-04-03T03:33:13;6.43;;;3.78;;
37409;SDS011;23275;48.914;12.566;2023-04-03T03:35:38;5.75;;;3.35;;
37409;SDS011;23275;48.914;12.566;2023-04-03T03:38:05;8.23;;;3.47;;
37409;SDS011;23275;48.914;12.566;2023-04-03T03:40:30;9.77;;;3.65;;
37409;SDS011;23275;48.914;12.566;2023-04-03T03:42:56;8.85;;;3.75;;
37409;SDS011;23275;48.914;12.566;2023-04-03T03:45:21;8.45;;;3.90;;
37409;SDS011;23275;48.914;12.566;2023-04-03T03:47:47;7.30;;;3.72;;
37409;SDS011;23275;48.914;12.566;2023-04-03T03:50:12;6.78;;;4.07;;
37409;SDS011;23275;48.914;12.566;2023-04-03T03:52:38;9.13;;;3.63;;
37409;SDS011;23275;48.914;12.566;2023-04-03T03:55:04;7.05;;;3.60;;
37409;SDS011;23275;48.914;12.566;2023-04-03T03:57:29;7.10;;;4.40;;
37409;SDS011;23275;48.914;12.566;2023-04-03T03:59:55;6.20;;;3.72;;
37409;SDS011;23275;48.914;12.566;2023-04-03T04:02:21;12.18;;;3.90;;
37409;SDS011;23275;48.914;12.566;2023-04-03T04:04:46;5.80;;;3.88;;
37409;SDS011;23275;48.914;12.566;2023-04-03T04:07:12;8.07;;;4.43;;
37409;SDS011;23275;48.914;12.566;2023-04-03T04:09:37;7.68;;;4.43;;
37409;SDS011;23275;48.914;12.566;2023-04-03T04:12:03;7.18;;;3.85;;
37409;SDS011;23275;48.914;12.566;2023-04-03T04:14:29;6.85;;;3.83;;
37409;SDS011;23275;48.914;12.566;2023-04-03T04:16:54;8.02;;;4.25;;
37409;SDS011;23275;48.914;12.566;2023-04-03T04:19:20;8.13;;;3.72;;
37409;SDS011;23275;48.914;12.566;2023-04-03T04:21:45;6.47;;;3.90;;
37409;SDS011;23275;48.914;12.566;2023-04-03T04:24:11;6.55;;;3.47;;
37409;SDS011;23275;48.914;12.566;2023-04-03T04:26:36;6.22;;;3.67;;
37409;SDS011;23275;48.914;12.566;2023-04-03T04:29:02;8.73;;;4.00;;
37409;SDS011;23275;48.914;12.566;2023-04-03T04:31:28;7.88;;;3.90;;
37409;SDS011;23275;48.914;12.566;2023-04-03T04:33:53;10.52;;;3.83;;
37409;SDS011;23275;48.914;12.566;2023-04-03T04:36:19;10.15;;;4.50;;
37409;SDS011;23275;48.914;12.566;2023-04-03T04:38:45;6.05;;;3.78;;
37409;SDS011;23275;48.914;12.566;2023-04-03T04:41:11;6.70;;;3.63;;
37409;SDS011;23275;48.914;12.566;2023-04-03T04:43:37;7.18;;;3.38;;
37409;SDS011;23275;48.914;12.566;2023-04-03T04:46:07;7.72;;;3.92;;
37409;SDS011;23275;48.914;12.566;2023-04-03T04:50:59;11.32;;;3.92;;
37409;SDS011;23275;48.914;12.566;2023-04-03T04:53:25;7.10;;;3.35;;
37409;SDS011;23275;48.914;12.566;2023-04-03T04:55:51;8.25;;;3.42;;
37409;SDS011;23275;48.914;12.566;2023-04-03T04:58:17;8.95;;;3.63;;
37409;SDS011;23275;48.914;12.566;2023-04-03T05:00:43;7.38;;;3.90;;
37409;SDS011;23275;48.914;12.566;2023-04-03T05:03:09;8.10;;;3.72;;
37409;SDS011;23275;48.914;12.566;2023-04-03T05:05:34;8.05;;;3.60;;
37409;SDS011;23275;48.914;12.566;2023-04-03T05:08:00;6.78;;;3.33;;
37409;SDS011;23275;48.914;12.566;2023-04-03T05:10:27;5.90;;;3.40;;
37409;SDS011;23275;48.914;12.566;2023-04-03T05:12:53;7.30;;;3.72;;
37409;SDS011;23275;48.914;12.566;2023-04-03T05:15:19;7.18;;;3.58;;
37409;SDS011;23275;48.914;12.566;2023-04-03T05:17:44;12.27;;;4.05;;
37409;SDS011;23275;48.914;12.566;2023-04-03T05:20:11;8.02;;;3.67;;
37409;SDS011;23275;48.914;12.566;2023-04-03T05:22:36;12.23;;;4.55;;
37409;SDS011;23275;48.914;12.566;2023-04-03T05:25:02;7.90;;;4.30;;
37409;SDS011;23275;48.914;12.566;2023-04-03T05:27:28;9.25;;;3.67;;
37409;SDS011;23275;48.914;12.566;2023-04-03T05:29:54;7.13;;;3.80;;
37409;SDS011;23275;48.914;12.566;2023-04-03T05:32:20;7.13;;;3.40;;
37409;SDS011;23275;48.914;12.566;2023-04-03T05:34:47;7.18;;;4.10;;
37409;SDS011;23275;48.914;12.566;2023-04-03T05:37:12;9.35;;;3.58;;
37409;SDS011;23275;48.914;12.566;2023-04-03T05:39:38;6.30;;;3.53;;
37409;SDS011;23275;48.914;12.566;2023-04-03T05:42:05;7.78;;;3.50;;
37409;SDS011;23275;48.914;12.566;2023-04-03T05:44:31;8.40;;;3.55;;
37409;SDS011;23275;48.914;12.566;2023-04-03T05:46:57;9.32;;;3.80;;
37409;SDS011;23275;48.914;12.566;2023-04-03T05:49:23;7.07;;;3.45;;
37409;SDS011;23275;48.914;12.566;2023-04-03T05:51:48;7.07;;;3.30;;
37409;SDS011;23275;48.914;12.566;2023-04-03T05:54:24;10.15;;;4.10;;
37409;SDS011;23275;48.914;12.566;2023-04-03T05:56:51;7.82;;;4.25;;
37409;SDS011;23275;48.914;12.566;2023-04-03T05:59:17;8.68;;;3.63;;
37409;SDS011;23275;48.914;12.566;2023-04-03T06:01:44;6.40;;;3.08;;
37409;SDS011;23275;48.914;12.566;2023-04-03T06:04:10;8.48;;;3.53;;
37409;SDS011;23275;48.914;12.566;2023-04-03T06:06:44;6.53;;;2.92;;
37409;SDS011;23275;48.914;12.566;2023-04-03T06:09:18;6.60;;;3.15;;
37409;SDS011;23275;48.914;12.566;2023-04-03T06:11:45;7.55;;;3.30;;
37409;SDS011;23275;48.914;12.566;2023-04-03T06:14:11;7.72;;;3.08;;
37409;SDS011;23275;48.914;12.566;2023-04-03T06:16:38;5.13;;;2.90;;
37409;SDS011;23275;48.914;12.566;2023-04-03T06:19:04;9.52;;;2.70;;
37409;SDS011;23275;48.914;12.566;2023-04-03T06:21:31;7.63;;;2.75;;
37409;SDS011;23275;48.914;12.566;2023-04-03T06:23:57;3.67;;;2.08;;
37409;SDS011;23275;48.914;12.566;2023-04-03T06:26:23;4.78;;;2.28;;
37409;SDS011;23275;48.914;12.566;2023-04-03T06:28:48;4.10;;;2.08;;
37409;SDS011;23275;48.914;12.566;2023-04-03T06:31:14;9.63;;;2.63;;
37409;SDS011;23275;48.914;12.566;2023-04-03T06:33:40;5.85;;;2.25;;
37409;SDS011;23275;48.914;12.566;2023-04-03T06:36:05;2.95;;;1.67;;
37409;SDS011;23275;48.914;12.566;2023-04-03T06:38:33;4.93;;;1.70;;
37409;SDS011;23275;48.914;12.566;2023-04-03T06:40:59;4.05;;;1.60;;
37409;SDS011;23275;48.914;12.566;2023-04-03T06:43:25;7.93;;;1.83;;
37409;SDS011;23275;48.914;12.566;2023-04-03T06:45:51;3.55;;;1.23;;
37409;SDS011;23275;48.914;12.566;2023-04-03T06:48:17;3.00;;;1.33;;
37409;SDS011;23275;48.914;12.566;2023-04-03T06:50:42;4.47;;;1.40;;
37409;SDS011;23275;48.914;12.566;2023-04-03T06:53:08;4.28;;;1.50;;
37409;SDS011;23275;48.914;12.566;2023-04-03T06:55:34;6.78;;;1.20;;
37409;SDS011;23275;48.914;12.566;2023-04-03T06:58:00;5.68;;;1.45;;
37409;SDS011;23275;48.914;12.566;2023-04-03T07:00:26;6.10;;;1.58;;
37409;SDS011;23275;48.914;12.566;2023-04-03T07:02:52;3.35;;;1.20;;
37409;SDS011;23275;48.914;12.566;2023-04-03T07:05:18;3.72;;;1.10;;
37409;SDS011;23275;48.914;12.566;2023-04-03T07:07:44;4.68;;;1.40;;
37409;SDS011;23275;48.914;12.566;2023-04-03T07:10:10;4.10;;;1.67;;
37409;SDS011;23275;48.914;12.566;2023-04-03T07:12:36;5.70;;;1.35;;
37409;SDS011;23275;48.914;12.566;2023-04-03T07:15:03;3.85;;;1.27;;
37409;SDS011;23275;48.914;12.566;2023-04-03T07:17:29;6.40;;;1.58;;
37409;SDS011;23275;48.914;12.566;2023-04-03T07:19:55;4.30;;;1.40;;
37409;SDS011;23275;48.914;12.566;2023-04-03T07:22:21;3.55;;;1.35;;
37409;SDS011;23275;48.914;12.566;2023-04-03T07:24:46;3.90;;;1.38;;
37409;SDS011;23275;48.914;12.566;2023-04-03T07:27:12;3.97;;;1.52;;
37409;SDS011;23275;48.914;12.566;2023-04-03T07:29:38;5.03;;;1.60;;
37409;SDS011;23275;48.914;12.566;2023-04-03T07:32:04;3.92;;;1.58;;
37409;SDS011;23275;48.914;12.566;2023-04-03T07:34:30;3.33;;;1.40;;
37409;SDS011;23275;48.914;12.566;2023-04-03T07:36:56;5.18;;;1.20;;
37409;SDS011;23275;48.914;12.566;2023-04-03T07:39:22;4.72;;;1.13;;
37409;SDS011;23275;48.914;12.566;2023-04-03T07:41:48;4.50;;;1.00;;
37409;SDS011;23275;48.914;12.566;2023-04-03T07:44:14;2.85;;;0.85;;
37409;SDS011;23275;48.914;12.566;2023-04-03T07:46:40;5.07;;;1.13;;
37409;SDS011;23275;48.914;12.566;2023-04-03T07:49:05;4.63;;;1.27;;
37409;SDS011;23275;48.914;12.566;2023-04-03T07:51:31;5.40;;;1.33;;
37409;SDS011;23275;48.914;12.566;2023-04-03T07:53:57;2.75;;;1.00;;
37409;SDS011;23275;48.914;12.566;2023-04-03T07:56:23;3.80;;;1.00;;
37409;SDS011;23275;48.914;12.566;2023-04-03T07:58:50;8.80;;;1.17;;
37409;SDS011;23275;48.914;12.566;2023-04-03T08:01:15;4.75;;;1.05;;
37409;SDS011;23275;48.914;12.566;2023-04-03T08:03:41;3.35;;;1.25;;
37409;SDS011;23275;48.914;12.566;2023-04-03T08:06:07;3.58;;;1.05;;
37409;SDS011;23275;48.914;12.566;2023-04-03T08:08:33;5.20;;;1.25;;
37409;SDS011;23275;48.914;12.566;2023-04-03T08:11:00;4.40;;;1.10;;
37409;SDS011;23275;48.914;12.566;2023-04-03T08:13:27;5.38;;;1.15;;
37409;SDS011;23275;48.914;12.566;2023-04-03T08:15:55;4.32;;;1.30;;
37409;SDS011;23275;48.914;12.566;2023-04-03T08:18:22;2.40;;;0.90;;
37409;SDS011;23275;48.914;12.566;2023-04-03T08:20:49;4.40;;;1.00;;
37409;SDS011;23275;48.914;12.566;2023-04-03T08:23:16;5.35;;;0.90;;
37409;SDS011;23275;48.914;12.566;2023-04-03T08:25:43;2.20;;;0.90;;
37409;SDS011;23275;48.914;12.566;2023-04-03T08:28:09;2.95;;;1.10;;
37409;SDS011;23275;48.914;12.566;2023-04-03T08:30:38;3.15;;;0.88;;
37409;SDS011;23275;48.914;12.566;2023-04-03T08:33:04;4.47;;;0.80;;
37409;SDS011;23275;48.914;12.566;2023-04-03T08:35:31;4.63;;;1.13;;
37409;SDS011;23275;48.914;12.566;2023-04-03T08:37:56;3.95;;;0.90;;
37409;SDS011;23275;48.914;12.566;2023-04-03T08:40:22;2.63;;;0.90;;
37409;SDS011;23275;48.914;12.566;2023-04-03T08:43:03;2.28;;;0.80;;
37409;SDS011;23275;48.914;12.566;2023-04-03T08:48:15;3.13;;;0.82;;
37409;SDS011;23275;48.914;12.566;2023-04-03T08:51:00;3.08;;;0.90;;
37409;SDS011;23275;48.914;12.566;2023-04-03T08:53:31;2.90;;;0.88;;
37409;SDS011;23275;48.914;12.566;2023-04-03T08:56:02;4.35;;;1.00;;
37409;SDS011;23275;48.914;12.566;2023-04-03T08:58:41;5.90;;;0.90;;
37409;SDS011;23275;48.914;12.566;2023-04-03T09:03:44;3.58;;;1.23;;
37409;SDS011;23275;48.914;12.566;2023-04-03T09:06:12;3.00;;;0.80;;
37409;SDS011;23275;48.914;12.566;2023-04-03T09:09:07;2.40;;;0.90;;
37409;SDS011;23275;48.914;12.566;2023-04-03T09:11:44;2.65;;;1.10;;
37409;SDS011;23275;48.914;12.566;2023-04-03T09:14:19;3.30;;;0.90;;
37409;SDS011;23275;48.914;12.566;2023-04-03T09:16:58;2.55;;;0.60;;
37409;SDS011;23275;48.914;12.566;2023-04-03T09:22:11;3.35;;;0.50;;
37409;SDS011;23275;48.914;12.566;2023-04-03T09:24:47;1.45;;;0.50;;
37409;SDS011;23275;48.914;12.566;2023-04-03T09:27:17;2.33;;;0.60;;
37409;SDS011;23275;48.914;12.566;2023-04-03T09:29:43;2.45;;;0.63;;
37409;SDS011;23275;48.914;12.566;2023-04-03T09:35:03;2.30;;;0.70;;
37409;SDS011;23275;48.914;12.566;2023-04-03T09:37:41;2.40;;;0.68;;
37409;SDS011;23275;48.914;12.566;2023-04-03T09:40:28;3.63;;;0.70;;
37409;SDS011;23275;48.914;12.566;2023-04-03T09:43:19;3.03;;;0.90;;
37409;SDS011;23275;48.914;12.566;2023-04-03T09:45:47;3.88;;;0.80;;
37409;SDS011;23275;48.914;12.566;2023-04-03T09:50:52;5.32;;;0.88;;
37409;SDS011;23275;48.914;12.566;2023-04-03T09:56:04;4.85;;;0.85;;
37409;SDS011;23275;48.914;12.566;2023-04-03T09:58:46;3.15;;;1.02;;
37409;SDS011;23275;48.914;12.566;2023-04-03T10:06:43;1.77;;;0.60;;
37409;SDS011;23275;48.914;12.566;2023-04-03T10:09:16;1.60;;;0.57;;
37409;SDS011;23275;48.914;12.566;2023-04-03T10:12:00;2.58;;;0.63;;
37409;SDS011;23275;48.914;12.566;2023-04-03T10:14:38;2.05;;;0.77;;
37409;SDS011;23275;48.914;12.566;2023-04-03T10:17:12;3.55;;;0.88;;
37409;SDS011;23275;48.914;12.566;2023-04-03T10:25:29;3.90;;;0.97;;
37409;SDS011;23275;48.914;12.566;2023-04-03T10:27:59;2.20;;;0.65;;
37409;SDS011;23275;48.914;12.566;2023-04-03T10:36:25;2.97;;;0.88;;
37409;SDS011;23275;48.914;12.566;2023-04-03T10:39:00;1.40;;;0.60;;
37409;SDS011;23275;48.914;12.566;2023-04-03T10:47:30;3.33;;;1.45;;
37409;SDS011;23275;48.914;12.566;2023-04-03T10:50:25;2.67;;;0.90;;
37409;SDS011;23275;48.914;12.566;2023-04-03T10:53:14;3.22;;;0.88;;
37409;SDS011;23275;48.914;12.566;2023-04-03T10:55:47;2.83;;;0.90;;
37409;SDS011;23275;48.914;12.566;2023-04-03T10:58:32;3.53;;;0.75;;
37409;SDS011;23275;48.914;12.566;2023-04-03T11:01:07;4.15;;;0.70;;
37409;SDS011;23275;48.914;12.566;2023-04-03T11:03:40;1.88;;;0.70;;
37409;SDS011;23275;48.914;12.566;2023-04-03T11:06:13;1.45;;;0.60;;
37409;SDS011;23275;48.914;12.566;2023-04-03T11:08:51;2.60;;;0.60;;
37409;SDS011;23275;48.914;12.566;2023-04-03T11:14:04;2.00;;;0.50;;
37409;SDS011;23275;48.914;12.566;2023-04-03T11:16:40;2.67;;;0.52;;
37409;SDS011;23275;48.914;12.566;2023-04-03T11:19:17;2.72;;;0.88;;
37409;SDS011;23275;48.914;12.566;2023-04-03T11:24:31;2.42;;;0.70;;
37409;SDS011;23275;48.914;12.566;2023-04-03T11:27:01;2.30;;;1.00;;
37409;SDS011;23275;48.914;12.566;2023-04-03T11:29:34;3.25;;;1.13;;
37409;SDS011;23275;48.914;12.566;2023-04-03T11:34:53;2.92;;;1.20;;
37409;SDS011;23275;48.914;12.566;2023-04-03T11:42:41;5.03;;;1.20;;
37409;SDS011;23275;48.914;12.566;2023-04-03T11:45:17;2.75;;;1.23;;
37409;SDS011;23275;48.914;12.566;2023-04-03T11:53:01;2.53;;;0.93;;
37409;SDS011;23275;48.914;12.566;2023-04-03T11:58:22;4.07;;;0.82;;
37409;SDS011;23275;48.914;12.566;2023-04-03T12:05:55;2.00;;;0.80;;
37409;SDS011;23275;48.914;12.566;2023-04-03T12:13:34;3.45;;;1.40;;
37409;SDS011;23275;48.914;12.566;2023-04-03T12:16:04;2.42;;;0.90;;
37409;SDS011;23275;48.914;12.566;2023-04-03T12:21:21;2.85;;;1.10;;
37409;SDS011;23275;48.914;12.566;2023-04-03T12:24:02;3.10;;;1.13;;
37409;SDS011;23275;48.914;12.566;2023-04-03T12:48:25;3.13;;;0.98;;
37409;SDS011;23275;48.914;12.566;2023-04-03T12:50:53;4.45;;;1.00;;
37409;SDS011;23275;48.914;12.566;2023-04-03T12:53:42;1.98;;;0.88;;
37409;SDS011;23275;48.914;12.566;2023-04-03T13:01:22;4.53;;;1.40;;
37409;SDS011;23275;48.914;12.566;2023-04-03T13:03:51;3.55;;;1.02;;
37409;SDS011;23275;48.914;12.566;2023-04-03T13:06:21;5.65;;;1.25;;
37409;SDS011;23275;48.914;12.566;2023-04-03T13:08:51;2.63;;;0.90;;
37409;SDS011;23275;48.914;12.566;2023-04-03T13:11:17;2.67;;;1.13;;
37409;SDS011;23275;48.914;12.566;2023-04-03T13:13:59;3.28;;;1.25;;
37409;SDS011;23275;48.914;12.566;2023-04-03T13:16:31;2.50;;;1.00;;
37409;SDS011;23275;48.914;12.566;2023-04-03T13:18:58;3.88;;;1.75;;
37409;SDS011;23275;48.914;12.566;2023-04-03T13:21:30;3.83;;;1.10;;
37409;SDS011;23275;48.914;12.566;2023-04-03T13:23:59;2.90;;;1.20;;
37409;SDS011;23275;48.914;12.566;2023-04-03T13:26:29;4.03;;;1.38;;
37409;SDS011;23275;48.914;12.566;2023-04-03T13:28:57;2.80;;;0.98;;
37409;SDS011;23275;48.914;12.566;2023-04-03T13:31:34;4.80;;;1.13;;
37409;SDS011;23275;48.914;12.566;2023-04-03T13:34:12;2.42;;;0.95;;
37409;SDS011;23275;48.914;12.566;2023-04-03T13:36:46;3.47;;;1.27;;
37409;SDS011;23275;48.914;12.566;2023-04-03T13:41:44;5.10;;;1.48;;
37409;SDS011;23275;48.914;12.566;2023-04-03T13:46:46;4.30;;;0.90;;
37409;SDS011;23275;48.914;12.566;2023-04-03T13:51:51;6.28;;;1.10;;
37409;SDS011;23275;48.914;12.566;2023-04-03T13:54:18;2.75;;;1.02;;
37409;SDS011;23275;48.914;12.566;2023-04-03T13:56:47;2.88;;;1.23;;
37409;SDS011;23275;48.914;12.566;2023-04-03T13:59:27;3.00;;;0.95;;
37409;SDS011;23275;48.914;12.566;2023-04-03T14:04:28;3.72;;;1.00;;
37409;SDS011;23275;48.914;12.566;2023-04-03T14:06:58;3.55;;;1.45;;
37409;SDS011;23275;48.914;12.566;2023-04-03T14:09:26;1.77;;;0.75;;
37409;SDS011;23275;48.914;12.566;2023-04-03T14:11:54;3.72;;;1.00;;
37409;SDS011;23275;48.914;12.566;2023-04-03T14:14:24;4.57;;;1.10;;
37409;SDS011;23275;48.914;12.566;2023-04-03T14:16:56;3.17;;;1.10;;
37409;SDS011;23275;48.914;12.566;2023-04-03T14:19:34;3.63;;;0.90;;
37409;SDS011;23275;48.914;12.566;2023-04-03T14:22:05;4.25;;;0.90;;
37409;SDS011;23275;48.914;12.566;2023-04-03T14:24:37;1.85;;;0.80;;
37409;SDS011;23275;48.914;12.566;2023-04-03T14:27:05;4.15;;;0.98;;
37409;SDS011;23275;48.914;12.566;2023-04-03T14:29:42;2.17;;;0.77;;
37409;SDS011;23275;48.914;12.566;2023-04-03T14:32:10;2.80;;;0.73;;
37409;SDS011;23275;48.914;12.566;2023-04-03T14:34:40;3.35;;;1.00;;
37409;SDS011;23275;48.914;12.566;2023-04-03T14:37:15;3.83;;;0.93;;
37409;SDS011;23275;48.914;12.566;2023-04-03T14:39:45;2.28;;;0.90;;
37409;SDS011;23275;48.914;12.566;2023-04-03T14:42:16;3.28;;;1.15;;
37409;SDS011;23275;48.914;12.566;2023-04-03T14:44:44;2.00;;;0.82;;
37409;SDS011;23275;48.914;12.566;2023-04-03T14:47:13;2.08;;;1.00;;
37409;SDS011;23275;48.914;12.566;2023-04-03T14:49:47;3.33;;;1.02;;
37409;SDS011;23275;48.914;12.566;2023-04-03T14:52:24;4.10;;;0.93;;
37409;SDS011;23275;48.914;12.566;2023-04-03T14:54:56;3.13;;;1.10;;
37409;SDS011;23275;48.914;12.566;2023-04-03T14:57:23;5.28;;;0.80;;
37409;SDS011;23275;48.914;12.566;2023-04-03T14:59:50;3.08;;;1.05;;
37409;SDS011;23275;48.914;12.566;2023-04-03T15:04:41;1.92;;;0.75;;
37409;SDS011;23275;48.914;12.566;2023-04-03T15:07:07;3.25;;;1.05;;
37409;SDS011;23275;48.914;12.566;2023-04-03T15:09:34;2.53;;;0.80;;
37409;SDS011;23275;48.914;12.566;2023-04-03T15:12:01;3.00;;;0.82;;
37409;SDS011;23275;48.914;12.566;2023-04-03T15:14:27;2.83;;;0.80;;
37409;SDS011;23275;48.914;12.566;2023-04-03T15:16:53;2.97;;;0.88;;
37409;SDS011;23275;48.914;12.566;2023-04-03T15:19:18;2.97;;;0.82;;
37409;SDS011;23275;48.914;12.566;2023-04-03T15:21:44;3.15;;;0.80;;
37409;SDS011;23275;48.914;12.566;2023-04-03T15:24:09;3.47;;;1.00;;
37409;SDS011;23275;48.914;12.566;2023-04-03T15:26:36;4.13;;;1.10;;
37409;SDS011;23275;48.914;12.566;2023-04-03T15:29:01;2.40;;;0.93;;
37409;SDS011;23275;48.914;12.566;2023-04-03T15:31:28;2.45;;;0.88;;
37409;SDS011;23275;48.914;12.566;2023-04-03T15:33:54;2.08;;;0.90;;
37409;SDS011;23275;48.914;12.566;2023-04-03T15:36:20;5.15;;;1.05;;
37409;SDS011;23275;48.914;12.566;2023-04-03T15:38:45;3.08;;;0.82;;
37409;SDS011;23275;48.914;12.566;2023-04-03T15:41:11;2.30;;;1.17;;
37409;SDS011;23275;48.914;12.566;2023-04-03T15:43:37;2.22;;;0.80;;
37409;SDS011;23275;48.914;12.566;2023-04-03T15:46:03;2.22;;;0.93;;
37409;SDS011;23275;48.914;12.566;2023-04-03T15:48:29;3.42;;;1.05;;
37409;SDS011;23275;48.914;12.566;2023-04-03T15:50:55;3.22;;;0.90;;
37409;SDS011;23275;48.914;12.566;2023-04-03T15:53:21;4.72;;;1.25;;
37409;SDS011;23275;48.914;12.566;2023-04-03T15:55:46;5.15;;;1.23;;
37409;SDS011;23275;48.914;12.566;2023-04-03T15:58:12;3.08;;;1.10;;
37409;SDS011;23275;48.914;12.566;2023-04-03T16:00:37;2.10;;;0.85;;
37409;SDS011;23275;48.914;12.566;2023-04-03T16:03:11;3.90;;;0.98;;
37409;SDS011;23275;48.914;12.566;2023-04-03T16:05:39;4.93;;;1.10;;
37409;SDS011;23275;48.914;12.566;2023-04-03T16:08:06;2.72;;;1.10;;
37409;SDS011;23275;48.914;12.566;2023-04-03T16:10:35;1.98;;;1.00;;
37409;SDS011;23275;48.914;12.566;2023-04-03T16:13:01;2.70;;;1.05;;
37409;SDS011;23275;48.914;12.566;2023-04-03T16:15:30;5.75;;;1.23;;
37409;SDS011;23275;48.914;12.566;2023-04-03T16:17:57;2.80;;;1.23;;
37409;SDS011;23275;48.914;12.566;2023-04-03T16:20:24;2.78;;;1.08;;
37409;SDS011;23275;48.914;12.566;2023-04-03T16:22:50;3.50;;;1.30;;
37409;SDS011;23275;48.914;12.566;2023-04-03T16:25:17;3.78;;;1.20;;
37409;SDS011;23275;48.914;12.566;2023-04-03T16:27:42;2.95;;;1.10;;
37409;SDS011;23275;48.914;12.566;2023-04-03T16:30:09;2.22;;;0.70;;
37409;SDS011;23275;48.914;12.566;2023-04-03T16:32:35;3.75;;;0.98;;
37409;SDS011;23275;48.914;12.566;2023-04-03T16:35:02;3.03;;;1.10;;
37409;SDS011;23275;48.914;12.566;2023-04-03T16:37:28;5.20;;;1.35;;
37409;SDS011;23275;48.914;12.566;2023-04-03T16:39:54;4.85;;;1.30;;
37409;SDS011;23275;48.914;12.566;2023-04-03T16:42:19;3.67;;;1.50;;
37409;SDS011;23275;48.914;12.566;2023-04-03T16:44:45;4.15;;;1.23;;
37409;SDS011;23275;48.914;12.566;2023-04-03T16:47:11;3.03;;;1.20;;
37409;SDS011;23275;48.914;12.566;2023-04-03T16:49:38;3.85;;;1.02;;